createdAt,value
2023-12-05T00:00:59.369Z,6.73
2023-12-05T00:03:29.377Z,6.74
2023-12-05T00:05:59.335Z,6.74
2023-12-05T00:08:35.081Z,6.73
2023-12-05T00:11:10.855Z,6.72
2023-12-05T00:13:41.866Z,6.70
2023-12-05T00:16:12.511Z,6.69
2023-12-05T00:18:48.632Z,6.68
2023-12-05T00:21:18.513Z,6.67
2023-12-05T00:23:48.368Z,6.68
2023-12-05T00:26:18.084Z,6.69
2023-12-05T00:28:47.936Z,6.71
2023-12-05T00:31:17.754Z,6.71
2023-12-05T00:33:48.823Z,6.73
2023-12-05T00:36:23.575Z,6.73
2023-12-05T00:38:53.312Z,6.76
2023-12-05T00:41:28.937Z,6.79
2023-12-05T00:43:58.703Z,6.80
2023-12-05T00:46:29.056Z,6.82
2023-12-05T00:48:59.363Z,6.83
2023-12-05T00:51:31.393Z,6.84
2023-12-05T00:54:01.164Z,6.83
2023-12-05T00:56:30.973Z,6.83
2023-12-05T00:59:01.008Z,6.84
2023-12-05T01:01:30.928Z,6.85
2023-12-05T01:04:01.164Z,6.87
2023-12-05T01:06:31.266Z,6.88
2023-12-05T01:09:01.317Z,6.85
2023-12-05T01:11:31.336Z,6.85
2023-12-05T01:14:01.131Z,6.83
2023-12-05T01:16:35.667Z,6.80
2023-12-05T01:19:06.090Z,6.79
2023-12-05T01:21:36.071Z,6.78
2023-12-05T01:24:06.359Z,6.79
2023-12-05T01:26:36.828Z,6.79
2023-12-05T01:29:09.636Z,6.78
2023-12-05T01:31:39.433Z,6.80
2023-12-05T01:34:09.279Z,6.79
2023-12-05T01:36:39.148Z,6.78
2023-12-05T01:39:08.944Z,6.80
2023-12-05T01:41:41.981Z,6.82
2023-12-05T01:44:11.781Z,6.85
2023-12-05T01:46:43.596Z,6.86
2023-12-05T01:49:18.668Z,6.86
2023-12-05T01:51:53.454Z,6.88
2023-12-05T01:54:23.547Z,6.88
2023-12-05T01:56:55.344Z,6.87
2023-12-05T01:59:26.657Z,6.87
2023-12-05T02:01:57.210Z,6.87
2023-12-05T02:04:28.007Z,6.89
2023-12-05T02:07:00.427Z,6.88
2023-12-05T02:09:33.309Z,6.87
2023-12-05T02:12:03.331Z,6.83
2023-12-05T02:14:34.052Z,6.82
2023-12-05T02:17:15.876Z,6.80
2023-12-05T02:19:54.348Z,6.84
2023-12-05T02:22:54.476Z,6.84
2023-12-05T02:25:34.176Z,6.86
2023-12-05T02:28:06.998Z,6.87
2023-12-05T02:30:36.865Z,6.87
2023-12-05T02:33:06.901Z,6.87
2023-12-05T02:35:42.041Z,6.87
2023-12-05T02:38:19.447Z,6.88
2023-12-05T02:41:01.178Z,6.89
2023-12-05T02:43:40.104Z,6.91
2023-12-05T02:46:12.972Z,6.92
2023-12-05T02:48:43.881Z,6.93
2023-12-05T02:51:14.277Z,6.92
2023-12-05T02:53:46.526Z,6.92
2023-12-05T02:56:20.406Z,6.90
2023-12-05T02:58:50.168Z,6.91
2023-12-05T03:01:22.616Z,6.91
2023-12-05T03:03:55.067Z,6.91
2023-12-05T03:06:28.655Z,6.91
2023-12-05T03:09:02.205Z,6.90
2023-12-05T03:11:32.896Z,6.90
2023-12-05T03:14:05.180Z,6.87
2023-12-05T03:16:35.083Z,6.84
2023-12-05T03:19:05.254Z,6.83
2023-12-05T03:21:37.900Z,6.83
2023-12-05T03:24:10.266Z,6.84
2023-12-05T03:26:40.263Z,6.85
2023-12-05T03:29:10.096Z,6.85
2023-12-05T03:31:43.178Z,6.85
2023-12-05T03:34:13.025Z,6.84
2023-12-05T03:36:45.133Z,6.83
2023-12-05T03:39:15.682Z,6.87
2023-12-05T03:41:47.376Z,6.90
2023-12-05T03:44:17.224Z,6.91
2023-12-05T03:46:49.547Z,6.91
2023-12-05T03:49:19.355Z,6.89
2023-12-05T03:51:51.817Z,6.89
2023-12-05T03:54:22.285Z,6.87
2023-12-05T03:56:54.435Z,6.89
2023-12-05T03:59:24.271Z,6.90
2023-12-05T04:01:54.077Z,6.91
2023-12-05T04:04:23.924Z,6.92
2023-12-05T04:06:54.157Z,6.90
2023-12-05T04:09:24.058Z,6.89
2023-12-05T04:11:53.939Z,6.87
2023-12-05T04:14:23.924Z,6.85
2023-12-05T04:16:56.174Z,6.85
2023-12-05T04:19:26.071Z,6.85
2023-12-05T04:21:56.000Z,6.88
2023-12-05T04:24:25.771Z,6.90
2023-12-05T04:26:55.571Z,6.89
2023-12-05T04:29:25.621Z,6.90
2023-12-05T04:31:55.560Z,6.88
2023-12-05T04:34:26.492Z,6.89
2023-12-05T04:36:56.555Z,6.92
2023-12-05T04:39:27.048Z,6.96
2023-12-05T04:41:57.121Z,6.96
2023-12-05T04:44:28.820Z,6.95
2023-12-05T04:46:58.628Z,6.95
2023-12-05T04:49:30.996Z,6.93
2023-12-05T04:52:01.692Z,6.91
2023-12-05T04:54:34.159Z,6.89
2023-12-05T04:57:06.329Z,6.86
2023-12-05T04:59:36.311Z,6.84
2023-12-05T05:02:06.430Z,6.83
2023-12-05T05:04:36.971Z,6.83
2023-12-05T05:07:09.167Z,6.80
2023-12-05T05:09:42.162Z,6.82
2023-12-05T05:12:14.226Z,6.84
2023-12-05T05:14:45.098Z,6.88
2023-12-05T05:17:14.964Z,6.91
2023-12-05T05:19:44.796Z,6.92
2023-12-05T05:22:14.678Z,6.91
2023-12-05T05:24:44.819Z,6.89
2023-12-05T05:27:18.308Z,6.88
2023-12-05T05:29:48.291Z,6.86
2023-12-05T05:32:18.141Z,6.88
2023-12-05T05:34:47.932Z,6.93
2023-12-05T05:37:20.293Z,6.93
2023-12-05T05:39:50.146Z,6.92
2023-12-05T05:42:19.948Z,6.91
2023-12-05T05:44:52.404Z,6.91
2023-12-05T05:47:25.477Z,6.91
2023-12-05T05:49:55.455Z,6.92
2023-12-05T05:52:25.308Z,6.92
2023-12-05T05:54:57.631Z,6.89
2023-12-05T05:57:29.893Z,6.87
2023-12-05T05:59:59.748Z,6.85
2023-12-05T06:02:30.173Z,6.84
2023-12-05T06:05:00.205Z,6.85
2023-12-05T06:07:30.674Z,6.82
2023-12-05T06:10:00.520Z,6.76
2023-12-05T06:12:33.553Z,6.72
2023-12-05T06:15:06.828Z,6.68
2023-12-05T06:17:38.886Z,6.65
2023-12-05T06:20:11.876Z,6.60
2023-12-05T06:22:43.882Z,6.54
2023-12-05T06:25:13.812Z,6.49
2023-12-05T06:27:48.561Z,6.47
2023-12-05T06:30:24.847Z,6.42
2023-12-05T06:32:59.595Z,6.37
2023-12-05T06:35:31.870Z,6.34
2023-12-05T06:38:01.715Z,6.32
2023-12-05T06:40:33.735Z,6.31
2023-12-05T06:43:08.749Z,6.31
2023-12-05T06:45:38.869Z,6.30
2023-12-05T06:48:08.792Z,6.28
2023-12-05T06:50:38.754Z,6.23
2023-12-05T06:53:08.486Z,6.18
2023-12-05T06:55:41.692Z,6.10
2023-12-05T06:58:11.452Z,6.06
2023-12-05T07:00:43.817Z,6.05
2023-12-05T07:03:13.759Z,6.04
2023-12-05T07:05:43.821Z,6.04
2023-12-05T07:08:14.022Z,6.02
2023-12-05T07:10:46.308Z,5.95
2023-12-05T07:13:16.212Z,5.92
2023-12-05T07:15:46.315Z,5.90
2023-12-05T07:18:16.105Z,5.87
2023-12-05T07:20:45.953Z,5.85
2023-12-05T07:23:15.753Z,5.82
2023-12-05T07:25:45.595Z,5.77
2023-12-05T07:28:17.721Z,5.75
2023-12-05T07:30:47.570Z,5.72
2023-12-05T07:33:19.925Z,5.70
2023-12-05T07:35:49.897Z,5.69
2023-12-05T07:38:22.204Z,5.66
2023-12-05T07:40:52.183Z,5.66
2023-12-05T07:43:25.592Z,5.63
2023-12-05T07:45:55.445Z,5.58
2023-12-05T07:48:27.844Z,5.57
2023-12-05T07:51:00.217Z,5.54
2023-12-05T07:53:32.460Z,5.56
2023-12-05T07:56:02.562Z,5.56
2023-12-05T07:58:32.596Z,5.55
2023-12-05T08:01:02.525Z,5.51
2023-12-05T08:03:34.657Z,5.49
2023-12-05T08:06:05.399Z,5.48
2023-12-05T08:08:36.558Z,5.47
2023-12-05T08:11:07.532Z,5.48
2023-12-05T08:13:37.946Z,5.46
2023-12-05T08:16:09.643Z,5.44
2023-12-05T08:18:42.362Z,5.44
2023-12-05T08:21:14.894Z,5.43
2023-12-05T08:23:44.876Z,5.43
2023-12-05T08:26:17.768Z,5.41
2023-12-05T08:28:47.752Z,5.42
2023-12-05T08:31:19.693Z,5.45
2023-12-05T08:33:49.683Z,5.51
2023-12-05T08:36:19.676Z,5.53
2023-12-05T08:38:49.586Z,5.51
2023-12-05T08:41:22.868Z,5.50
2023-12-05T08:43:52.836Z,5.47
2023-12-05T08:46:22.633Z,5.46
2023-12-05T08:48:52.671Z,5.45
2023-12-05T08:51:22.481Z,5.39
2023-12-05T08:53:52.452Z,5.38
2023-12-05T08:56:22.410Z,5.37
2023-12-05T08:58:54.683Z,5.37
2023-12-05T09:01:24.776Z,5.39
2023-12-05T09:03:55.453Z,5.38
2023-12-05T09:06:25.486Z,5.35
2023-12-05T09:08:59.095Z,5.35
2023-12-05T09:11:29.045Z,5.36
2023-12-05T09:13:59.946Z,5.35
2023-12-05T09:16:31.769Z,5.31
2023-12-05T09:19:02.787Z,5.27
2023-12-05T09:21:33.252Z,5.23
2023-12-05T09:24:03.271Z,5.23
2023-12-05T09:26:33.169Z,5.25
2023-12-05T09:29:04.289Z,5.27
2023-12-05T09:31:36.741Z,5.32
2023-12-05T09:34:06.646Z,5.36
2023-12-05T09:36:36.499Z,5.40
2023-12-05T09:39:06.696Z,5.39
2023-12-05T09:41:40.410Z,5.39
2023-12-05T09:44:12.003Z,5.38
2023-12-05T09:46:49.856Z,5.37
2023-12-05T09:49:25.546Z,5.38
2023-12-05T09:51:56.122Z,5.32
2023-12-05T09:54:27.983Z,5.25
2023-12-05T09:57:01.394Z,5.23
2023-12-05T09:59:34.321Z,5.26
2023-12-05T10:02:05.031Z,5.26
2023-12-05T10:04:44.528Z,5.29
2023-12-05T10:07:17.500Z,5.33
2023-12-05T10:09:48.892Z,5.33
2023-12-05T10:12:22.208Z,5.29
2023-12-05T10:14:53.273Z,5.24
2023-12-05T10:17:23.054Z,5.25
2023-12-05T10:19:55.461Z,5.23
2023-12-05T10:22:28.050Z,5.25
2023-12-05T10:24:58.717Z,5.30
2023-12-05T10:27:29.022Z,5.34
2023-12-05T10:29:58.940Z,5.38
2023-12-05T10:32:29.368Z,5.39
2023-12-05T10:35:00.604Z,5.41
2023-12-05T10:37:31.229Z,5.42
2023-12-05T10:40:01.777Z,5.43
2023-12-05T10:42:32.030Z,5.44
2023-12-05T10:45:08.306Z,5.49
2023-12-05T10:47:38.114Z,5.52
2023-12-05T10:50:12.128Z,5.51
2023-12-05T10:52:41.879Z,5.48
2023-12-05T10:55:24.770Z,5.47
2023-12-05T10:57:55.115Z,5.48
2023-12-05T11:00:25.208Z,5.51
2023-12-05T11:02:58.330Z,5.55
2023-12-05T11:05:29.645Z,5.57
2023-12-05T11:08:00.071Z,5.60
2023-12-05T11:10:30.479Z,5.61
2023-12-05T11:13:04.467Z,5.61
2023-12-05T11:15:40.279Z,5.61
2023-12-05T11:18:17.821Z,5.64
2023-12-05T11:20:58.970Z,5.65
2023-12-05T11:24:03.593Z,5.66
2023-12-05T11:26:57.557Z,5.65
2023-12-05T11:29:54.240Z,5.61
2023-12-05T11:32:34.361Z,5.57
2023-12-05T11:35:23.045Z,5.58
2023-12-05T11:38:06.056Z,5.59
2023-12-05T11:40:35.820Z,5.61
2023-12-05T11:43:10.826Z,5.58
2023-12-05T11:45:40.950Z,5.53
2023-12-05T11:48:14.676Z,5.46
2023-12-05T11:50:46.317Z,5.41
2023-12-05T11:53:19.570Z,5.38
2023-12-05T11:55:53.634Z,5.38
2023-12-05T11:58:30.690Z,5.36
2023-12-05T12:01:08.396Z,5.38
2023-12-05T12:03:56.119Z,5.38
2023-12-05T12:06:30.440Z,5.37
2023-12-05T12:09:00.621Z,5.36
2023-12-05T12:11:32.817Z,5.33
2023-12-05T12:14:15.031Z,5.33
2023-12-05T12:16:46.873Z,5.35
2023-12-05T12:19:17.745Z,5.33
2023-12-05T12:21:48.265Z,5.31
2023-12-05T12:24:23.770Z,5.30
2023-12-05T12:26:59.224Z,5.27
2023-12-05T12:29:29.484Z,5.25
2023-12-05T12:32:10.513Z,5.22
2023-12-05T12:34:43.934Z,5.17
2023-12-05T12:37:20.845Z,5.17
2023-12-05T12:39:53.057Z,5.16
2023-12-05T12:42:23.947Z,5.16
2023-12-05T12:44:55.899Z,5.16
2023-12-05T12:47:25.711Z,5.15
2023-12-05T12:49:55.802Z,5.09
2023-12-05T12:52:28.695Z,5.05
2023-12-05T12:55:01.083Z,5.05
2023-12-05T12:57:34.229Z,5.07
2023-12-05T13:00:30.759Z,5.05
2023-12-05T13:03:00.505Z,5.02
2023-12-05T13:05:35.545Z,5.02
2023-12-05T13:08:08.572Z,4.97
2023-12-05T13:10:42.617Z,4.94
2023-12-05T13:13:16.003Z,4.94
2023-12-05T13:15:46.511Z,4.96
2023-12-05T13:18:18.851Z,4.94
2023-12-05T13:20:54.172Z,4.94
2023-12-05T13:23:24.695Z,4.95
2023-12-05T13:25:54.979Z,4.95
2023-12-05T13:28:24.755Z,4.97
2023-12-05T13:30:54.658Z,5.00
2023-12-05T13:33:26.993Z,4.98
2023-12-05T13:35:59.368Z,4.96
2023-12-05T13:38:29.125Z,4.93
2023-12-05T13:40:59.512Z,4.91
2023-12-05T13:43:31.498Z,4.85
2023-12-05T13:46:01.568Z,4.83
2023-12-05T13:48:32.770Z,4.84
2023-12-05T13:51:04.188Z,4.88
2023-12-05T13:53:33.987Z,4.92
2023-12-05T13:56:06.241Z,4.95
2023-12-05T13:58:37.070Z,4.94
2023-12-05T14:01:10.399Z,4.92
2023-12-05T14:03:40.339Z,4.92
2023-12-05T14:06:11.209Z,4.94
2023-12-05T14:08:48.234Z,4.95
2023-12-05T14:11:18.227Z,4.98
2023-12-05T14:13:50.555Z,4.98
2023-12-05T14:16:20.531Z,4.97
2023-12-05T14:18:50.754Z,4.98
2023-12-05T14:21:20.726Z,4.96
2023-12-05T14:23:50.521Z,4.93
2023-12-05T14:26:20.392Z,4.89
2023-12-05T14:28:50.215Z,4.90
2023-12-05T14:31:22.185Z,4.91
2023-12-05T14:33:52.152Z,4.91
2023-12-05T14:36:26.672Z,4.88
2023-12-05T14:39:04.250Z,4.83
2023-12-05T14:41:37.747Z,4.80
2023-12-05T14:44:09.567Z,4.81
2023-12-05T14:46:42.567Z,4.84
2023-12-05T14:49:13.971Z,4.86
2023-12-05T14:51:44.805Z,4.89
2023-12-05T14:54:17.050Z,4.89
2023-12-05T14:56:46.907Z,4.84
2023-12-05T14:59:19.248Z,4.83
2023-12-05T15:01:49.169Z,4.85
2023-12-05T15:04:20.042Z,4.84
2023-12-05T15:06:50.070Z,4.84
2023-12-05T15:09:22.795Z,4.86
2023-12-05T15:11:53.141Z,4.84
2023-12-05T15:14:22.914Z,4.80
2023-12-05T15:16:52.880Z,4.79
2023-12-05T15:19:22.759Z,4.76
2023-12-05T15:21:52.905Z,4.70
2023-12-05T15:24:25.173Z,4.67
2023-12-05T15:26:55.069Z,4.69
2023-12-05T15:29:32.216Z,4.71
2023-12-05T15:32:09.044Z,4.72
2023-12-05T15:34:40.922Z,4.73
2023-12-05T15:37:13.146Z,4.73
2023-12-05T15:39:42.987Z,4.77
2023-12-05T15:42:15.765Z,4.84
2023-12-05T15:44:46.167Z,4.89
2023-12-05T15:47:16.125Z,4.91
2023-12-05T15:49:48.365Z,4.90
2023-12-05T15:52:18.256Z,4.89
2023-12-05T15:54:49.142Z,4.90
2023-12-05T15:57:21.733Z,4.89
2023-12-05T15:59:51.743Z,4.91
2023-12-05T16:02:26.909Z,4.92
2023-12-05T16:04:59.426Z,4.91
2023-12-05T16:07:29.556Z,4.89
2023-12-05T16:09:59.644Z,4.84
2023-12-05T16:12:29.626Z,4.80
2023-12-05T16:15:02.520Z,4.80
2023-12-05T16:17:32.564Z,4.82
2023-12-05T16:20:05.449Z,4.80
2023-12-05T16:22:35.423Z,4.87
2023-12-05T16:25:08.981Z,4.90
2023-12-05T16:27:38.977Z,4.91
2023-12-05T16:30:11.171Z,4.91
2023-12-05T16:32:43.607Z,4.93
2023-12-05T16:35:13.755Z,4.91
2023-12-05T16:37:45.945Z,4.93
2023-12-05T16:40:19.033Z,4.97
2023-12-05T16:42:49.299Z,5.00
2023-12-05T16:45:23.650Z,5.00
2023-12-05T16:48:00.119Z,4.98
2023-12-05T16:50:30.335Z,4.99
2023-12-05T16:53:00.196Z,5.00
2023-12-05T16:55:32.352Z,5.03
2023-12-05T16:58:02.340Z,5.02
2023-12-05T17:00:36.994Z,5.03
2023-12-05T17:03:07.330Z,5.01
2023-12-05T17:05:37.202Z,4.98
2023-12-05T17:08:09.616Z,4.98
2023-12-05T17:10:39.482Z,4.98
2023-12-05T17:13:09.326Z,4.98
2023-12-05T17:15:39.244Z,4.99
2023-12-05T17:18:09.145Z,4.95
2023-12-05T17:20:39.098Z,4.94
2023-12-05T17:23:08.899Z,4.94
2023-12-05T17:25:41.278Z,4.94
2023-12-05T17:28:11.265Z,4.97
2023-12-05T17:30:41.561Z,4.99
2023-12-05T17:33:11.550Z,5.01
2023-12-05T17:35:46.649Z,5.03
2023-12-05T17:38:16.789Z,5.01
2023-12-05T17:40:49.173Z,4.98
2023-12-05T17:43:18.946Z,4.94
2023-12-05T17:45:48.762Z,4.94
2023-12-05T17:48:18.516Z,4.96
2023-12-05T17:50:48.604Z,4.96
2023-12-05T17:53:18.486Z,5.00
2023-12-05T17:55:48.360Z,5.03
2023-12-05T17:58:22.808Z,5.03
2023-12-05T18:00:53.024Z,5.02
2023-12-05T18:03:26.073Z,5.02
2023-12-05T18:05:56.019Z,5.04
2023-12-05T18:08:28.198Z,5.04
2023-12-05T18:11:00.302Z,5.05
2023-12-05T18:13:32.571Z,5.07
2023-12-05T18:16:05.139Z,5.09
2023-12-05T18:18:35.413Z,5.06
2023-12-05T18:21:05.715Z,5.00
2023-12-05T18:23:36.586Z,4.98
2023-12-05T18:26:09.812Z,4.97
2023-12-05T18:28:39.747Z,4.95
2023-12-05T18:31:09.910Z,4.94
2023-12-05T18:33:39.990Z,4.92
2023-12-05T18:36:12.075Z,4.90
2023-12-05T18:38:41.929Z,4.86
2023-12-05T18:41:13.124Z,4.83
2023-12-05T18:43:43.048Z,4.84
2023-12-05T18:46:15.567Z,4.86
2023-12-05T18:48:45.465Z,4.85
2023-12-05T18:51:15.312Z,4.88
2023-12-05T18:53:45.876Z,4.91
2023-12-05T18:56:15.747Z,4.93
2023-12-05T18:58:45.553Z,4.92
2023-12-05T19:01:15.575Z,4.90
2023-12-05T19:03:45.805Z,4.93
2023-12-05T19:06:16.058Z,4.97
2023-12-05T19:08:45.873Z,4.98
2023-12-05T19:11:15.926Z,5.02
2023-12-05T19:13:45.701Z,5.06
2023-12-05T19:16:17.607Z,5.08
2023-12-05T19:18:50.318Z,5.09
2023-12-05T19:21:22.904Z,5.09
2023-12-05T19:23:55.702Z,5.08
2023-12-05T19:26:29.100Z,5.04
2023-12-05T19:28:59.056Z,5.04
2023-12-05T19:31:31.990Z,5.05
2023-12-05T19:34:02.186Z,5.03
2023-12-05T19:36:32.490Z,5.02
2023-12-05T19:39:04.980Z,5.01
2023-12-05T19:41:34.880Z,4.99
2023-12-05T19:44:05.116Z,4.97
2023-12-05T19:46:37.520Z,4.97
2023-12-05T19:49:08.379Z,4.95
2023-12-05T19:51:40.479Z,4.94
2023-12-05T19:54:12.572Z,4.94
2023-12-05T19:56:44.539Z,4.88
2023-12-05T19:59:15.010Z,4.89
2023-12-05T20:01:44.866Z,4.90
2023-12-05T20:04:17.486Z,4.93
2023-12-05T20:06:47.395Z,4.95
2023-12-05T20:09:17.237Z,4.98
2023-12-05T20:11:50.003Z,5.00
2023-12-05T20:14:19.713Z,4.98
2023-12-05T20:16:50.876Z,4.94
2023-12-05T20:19:21.997Z,4.91
2023-12-05T20:21:52.311Z,4.88
2023-12-05T20:24:24.645Z,4.86
2023-12-05T20:26:54.470Z,4.87
2023-12-05T20:29:26.274Z,4.83
2023-12-05T20:31:56.038Z,4.77
2023-12-05T20:34:25.864Z,4.73
2023-12-05T20:36:55.695Z,4.69
2023-12-05T20:39:25.496Z,4.68
2023-12-05T20:41:55.313Z,4.68
2023-12-05T20:44:25.350Z,4.66
2023-12-05T20:46:55.217Z,4.64
2023-12-05T20:49:27.618Z,4.64
2023-12-05T20:51:57.692Z,4.63
2023-12-05T20:54:27.629Z,4.57
2023-12-05T20:56:59.904Z,4.51
2023-12-05T20:59:29.819Z,4.48
2023-12-05T21:02:02.113Z,4.47
2023-12-05T21:04:32.422Z,4.49
2023-12-05T21:07:04.697Z,4.48
2023-12-05T21:09:36.797Z,4.48
2023-12-05T21:12:09.893Z,4.45
2023-12-05T21:14:42.314Z,4.47
2023-12-05T21:17:12.126Z,4.47
2023-12-05T21:19:46.709Z,4.47
2023-12-05T21:22:16.534Z,4.47
2023-12-05T21:24:46.426Z,4.44
2023-12-05T21:27:18.809Z,4.44
2023-12-05T21:29:48.907Z,4.44
2023-12-05T21:32:18.726Z,4.43
2023-12-05T21:34:48.817Z,4.37
2023-12-05T21:37:19.171Z,4.34
2023-12-05T21:39:49.295Z,4.32
2023-12-05T21:42:19.512Z,4.32
2023-12-05T21:44:49.660Z,4.32
2023-12-05T21:47:19.981Z,4.31
2023-12-05T21:49:50.072Z,4.31
2023-12-05T21:52:19.849Z,4.31
2023-12-05T21:54:50.109Z,4.31
2023-12-05T21:57:20.092Z,4.32
2023-12-05T21:59:52.179Z,4.34
2023-12-05T22:02:22.226Z,4.38
2023-12-05T22:04:52.061Z,4.39
2023-12-05T22:07:24.053Z,4.38
2023-12-05T22:09:54.875Z,4.35
2023-12-05T22:12:27.172Z,4.33
2023-12-05T22:14:57.121Z,4.30
2023-12-05T22:17:29.425Z,4.26
2023-12-05T22:20:01.622Z,4.27
2023-12-05T22:22:31.545Z,4.29
2023-12-05T22:25:01.606Z,4.30
2023-12-05T22:27:34.440Z,4.29
2023-12-05T22:30:05.338Z,4.25
2023-12-05T22:32:35.134Z,4.24
2023-12-05T22:35:05.993Z,4.23
2023-12-05T22:37:35.858Z,4.25
2023-12-05T22:40:10.468Z,4.27
2023-12-05T22:42:42.537Z,4.29
2023-12-05T22:45:13.177Z,4.32
2023-12-05T22:47:45.842Z,4.33
2023-12-05T22:50:15.851Z,4.34
2023-12-05T22:52:52.988Z,4.37
2023-12-05T22:55:23.237Z,4.40
2023-12-05T22:57:53.215Z,4.45
2023-12-05T23:00:26.812Z,4.49
2023-12-05T23:02:57.398Z,4.55
2023-12-05T23:05:30.547Z,4.58
2023-12-05T23:08:00.511Z,4.58
2023-12-05T23:10:30.384Z,4.56
2023-12-05T23:13:00.222Z,4.57
2023-12-05T23:15:32.348Z,4.59
2023-12-05T23:18:05.220Z,4.60
2023-12-05T23:20:34.984Z,4.61
2023-12-05T23:23:07.182Z,4.61
2023-12-05T23:25:37.270Z,4.64
2023-12-05T23:28:15.576Z,4.64
2023-12-05T23:30:49.032Z,4.63
2023-12-05T23:33:21.480Z,4.63
2023-12-05T23:35:51.519Z,4.63
2023-12-05T23:38:21.594Z,4.62
2023-12-05T23:40:51.365Z,4.62
2023-12-05T23:43:21.084Z,4.62
2023-12-05T23:45:50.993Z,4.61
2023-12-05T23:48:21.267Z,4.60
2023-12-05T23:50:51.339Z,4.59
2023-12-05T23:53:21.084Z,4.56
2023-12-05T23:55:50.816Z,4.57
2023-12-05T23:58:23.070Z,4.59
